sensor_id;sensor_type;location;lat;lon;timestamp;P1;durP1;ratioP1;P2;durP2;ratioP2
11386;SDS011;5748;53.102;8.456;2023-06-26T00:00:30;2.30;;;2.10;;
11386;SDS011;5748;53.102;8.456;2023-06-26T00:02:57;2.78;;;2.40;;
11386;SDS011;5748;53.102;8.456;2023-06-26T00:05:24;2.72;;;2.53;;
11386;SDS011;5748;53.102;8.456;2023-06-26T00:07:52;2.80;;;2.60;;
11386;SDS011;5748;53.102;8.456;2023-06-26T00:10:21;2.67;;;2.47;;
11386;SDS011;5748;53.102;8.456;2023-06-26T00:12:48;2.35;;;2.15;;
11386;SDS011;5748;53.102;8.456;2023-06-26T00:15:15;2.45;;;2.28;;
11386;SDS011;5748;53.102;8.456;2023-06-26T00:17:42;2.75;;;2.55;;
11386;SDS011;5748;53.102;8.456;2023-06-26T00:20:10;2.60;;;2.40;;
11386;SDS011;5748;53.102;8.456;2023-06-26T00:22:37;2.90;;;2.70;;
11386;SDS011;5748;53.102;8.456;2023-06-26T00:25:06;2.33;;;2.17;;
11386;SDS011;5748;53.102;8.456;2023-06-26T00:27:34;2.72;;;2.53;;
11386;SDS011;5748;53.102;8.456;2023-06-26T00:30:01;2.72;;;2.53;;
11386;SDS011;5748;53.102;8.456;2023-06-26T00:32:29;2.80;;;2.60;;
11386;SDS011;5748;53.102;8.456;2023-06-26T00:34:56;2.90;;;2.70;;
11386;SDS011;5748;53.102;8.456;2023-06-26T00:37:22;2.70;;;2.50;;
11386;SDS011;5748;53.102;8.456;2023-06-26T00:39:49;2.35;;;2.15;;
11386;SDS011;5748;53.102;8.456;2023-06-26T00:42:16;2.60;;;2.40;;
11386;SDS011;5748;53.102;8.456;2023-06-26T00:44:44;2.55;;;2.35;;
11386;SDS011;5748;53.102;8.456;2023-06-26T00:47:13;2.45;;;2.25;;
11386;SDS011;5748;53.102;8.456;2023-06-26T00:49:42;2.80;;;2.60;;
11386;SDS011;5748;53.102;8.456;2023-06-26T00:52:09;2.63;;;2.42;;
11386;SDS011;5748;53.102;8.456;2023-06-26T00:54:36;2.63;;;2.42;;
11386;SDS011;5748;53.102;8.456;2023-06-26T00:57:03;2.80;;;2.60;;
11386;SDS011;5748;53.102;8.456;2023-06-26T00:59:30;2.65;;;2.45;;
11386;SDS011;5748;53.102;8.456;2023-06-26T01:01:58;2.70;;;2.50;;
11386;SDS011;5748;53.102;8.456;2023-06-26T01:04:25;2.70;;;2.50;;
11386;SDS011;5748;53.102;8.456;2023-06-26T01:06:57;2.42;;;2.30;;
11386;SDS011;5748;53.102;8.456;2023-06-26T01:09:25;2.70;;;2.50;;
11386;SDS011;5748;53.102;8.456;2023-06-26T01:11:52;2.65;;;2.45;;
11386;SDS011;5748;53.102;8.456;2023-06-26T01:14:20;2.40;;;2.20;;
11386;SDS011;5748;53.102;8.456;2023-06-26T01:16:47;2.50;;;2.30;;
11386;SDS011;5748;53.102;8.456;2023-06-26T01:19:20;2.58;;;2.38;;
11386;SDS011;5748;53.102;8.456;2023-06-26T01:21:51;2.60;;;2.40;;
11386;SDS011;5748;53.102;8.456;2023-06-26T01:24:24;2.63;;;2.42;;
11386;SDS011;5748;53.102;8.456;2023-06-26T01:26:59;2.60;;;2.40;;
11386;SDS011;5748;53.102;8.456;2023-06-26T01:29:28;2.60;;;2.40;;
11386;SDS011;5748;53.102;8.456;2023-06-26T01:31:57;2.70;;;2.50;;
11386;SDS011;5748;53.102;8.456;2023-06-26T01:34:25;2.20;;;2.10;;
11386;SDS011;5748;53.102;8.456;2023-06-26T01:36:53;2.50;;;2.30;;
11386;SDS011;5748;53.102;8.456;2023-06-26T01:43:02;4.38;;;2.70;;
11386;SDS011;5748;53.102;8.456;2023-06-26T01:45:30;2.55;;;2.35;;
11386;SDS011;5748;53.102;8.456;2023-06-26T01:47:59;2.67;;;2.47;;
11386;SDS011;5748;53.102;8.456;2023-06-26T01:50:30;2.67;;;2.47;;
11386;SDS011;5748;53.102;8.456;2023-06-26T01:53:02;2.83;;;2.63;;
11386;SDS011;5748;53.102;8.456;2023-06-26T01:55:35;2.65;;;2.45;;
11386;SDS011;5748;53.102;8.456;2023-06-26T01:58:09;2.45;;;2.25;;
11386;SDS011;5748;53.102;8.456;2023-06-26T02:00:37;2.70;;;2.50;;
11386;SDS011;5748;53.102;8.456;2023-06-26T02:03:04;2.70;;;2.50;;
11386;SDS011;5748;53.102;8.456;2023-06-26T02:05:31;2.72;;;2.53;;
11386;SDS011;5748;53.102;8.456;2023-06-26T02:07:58;2.67;;;2.47;;
11386;SDS011;5748;53.102;8.456;2023-06-26T02:10:26;2.70;;;2.50;;
11386;SDS011;5748;53.102;8.456;2023-06-26T02:12:53;2.63;;;2.42;;
11386;SDS011;5748;53.102;8.456;2023-06-26T02:15:21;2.60;;;2.40;;
11386;SDS011;5748;53.102;8.456;2023-06-26T02:17:48;2.63;;;2.42;;
11386;SDS011;5748;53.102;8.456;2023-06-26T02:20:15;2.55;;;2.35;;
11386;SDS011;5748;53.102;8.456;2023-06-26T02:22:42;2.60;;;2.40;;
11386;SDS011;5748;53.102;8.456;2023-06-26T02:25:09;2.75;;;2.55;;
11386;SDS011;5748;53.102;8.456;2023-06-26T02:27:37;2.70;;;2.50;;
11386;SDS011;5748;53.102;8.456;2023-06-26T02:30:04;2.80;;;2.60;;
11386;SDS011;5748;53.102;8.456;2023-06-26T02:32:35;2.70;;;2.50;;
11386;SDS011;5748;53.102;8.456;2023-06-26T02:35:02;2.72;;;2.53;;
11386;SDS011;5748;53.102;8.456;2023-06-26T02:37:29;2.83;;;2.63;;
11386;SDS011;5748;53.102;8.456;2023-06-26T02:39:56;2.63;;;2.42;;
11386;SDS011;5748;53.102;8.456;2023-06-26T02:42:23;2.85;;;2.65;;
11386;SDS011;5748;53.102;8.456;2023-06-26T02:44:50;2.88;;;2.67;;
11386;SDS011;5748;53.102;8.456;2023-06-26T02:47:17;2.67;;;2.47;;
11386;SDS011;5748;53.102;8.456;2023-06-26T02:49:45;2.50;;;2.30;;
11386;SDS011;5748;53.102;8.456;2023-06-26T02:52:12;2.60;;;2.40;;
11386;SDS011;5748;53.102;8.456;2023-06-26T02:54:39;2.55;;;2.35;;
11386;SDS011;5748;53.102;8.456;2023-06-26T02:57:06;2.60;;;2.40;;
11386;SDS011;5748;53.102;8.456;2023-06-26T02:59:33;2.63;;;2.42;;
11386;SDS011;5748;53.102;8.456;2023-06-26T03:02:00;3.00;;;2.80;;
11386;SDS011;5748;53.102;8.456;2023-06-26T03:04:27;2.75;;;2.55;;
11386;SDS011;5748;53.102;8.456;2023-06-26T03:06:55;2.90;;;2.70;;
11386;SDS011;5748;53.102;8.456;2023-06-26T03:09:22;2.72;;;2.53;;
11386;SDS011;5748;53.102;8.456;2023-06-26T03:11:49;2.65;;;2.45;;
11386;SDS011;5748;53.102;8.456;2023-06-26T03:14:17;2.72;;;2.53;;
11386;SDS011;5748;53.102;8.456;2023-06-26T03:16:44;2.63;;;2.42;;
11386;SDS011;5748;53.102;8.456;2023-06-26T03:19:11;3.28;;;2.97;;
11386;SDS011;5748;53.102;8.456;2023-06-26T03:21:38;3.17;;;2.72;;
11386;SDS011;5748;53.102;8.456;2023-06-26T03:24:07;3.00;;;2.80;;
11386;SDS011;5748;53.102;8.456;2023-06-26T03:26:33;2.92;;;2.72;;
11386;SDS011;5748;53.102;8.456;2023-06-26T03:29:00;3.13;;;2.83;;
11386;SDS011;5748;53.102;8.456;2023-06-26T03:31:27;2.95;;;2.75;;
11386;SDS011;5748;53.102;8.456;2023-06-26T03:33:54;2.97;;;2.78;;
11386;SDS011;5748;53.102;8.456;2023-06-26T03:36:21;2.63;;;2.42;;
11386;SDS011;5748;53.102;8.456;2023-06-26T03:38:48;2.80;;;2.60;;
11386;SDS011;5748;53.102;8.456;2023-06-26T03:41:16;2.90;;;2.70;;
11386;SDS011;5748;53.102;8.456;2023-06-26T03:43:43;2.80;;;2.60;;
11386;SDS011;5748;53.102;8.456;2023-06-26T03:46:10;4.55;;;4.22;;
11386;SDS011;5748;53.102;8.456;2023-06-26T03:48:37;4.00;;;3.70;;
11386;SDS011;5748;53.102;8.456;2023-06-26T03:51:04;3.70;;;3.40;;
11386;SDS011;5748;53.102;8.456;2023-06-26T03:53:32;3.30;;;3.10;;
11386;SDS011;5748;53.102;8.456;2023-06-26T03:55:59;3.10;;;2.90;;
11386;SDS011;5748;53.102;8.456;2023-06-26T03:58:27;3.28;;;2.97;;
11386;SDS011;5748;53.102;8.456;2023-06-26T04:00:54;2.90;;;2.70;;
11386;SDS011;5748;53.102;8.456;2023-06-26T04:03:22;3.20;;;3.00;;
11386;SDS011;5748;53.102;8.456;2023-06-26T04:05:49;2.70;;;2.50;;
11386;SDS011;5748;53.102;8.456;2023-06-26T04:08:16;2.58;;;2.38;;
11386;SDS011;5748;53.102;8.456;2023-06-26T04:10:44;2.65;;;2.45;;
11386;SDS011;5748;53.102;8.456;2023-06-26T04:13:12;2.90;;;2.70;;
11386;SDS011;5748;53.102;8.456;2023-06-26T04:15:41;2.72;;;2.53;;
11386;SDS011;5748;53.102;8.456;2023-06-26T04:18:08;2.97;;;2.78;;
11386;SDS011;5748;53.102;8.456;2023-06-26T04:20:37;2.70;;;2.50;;
11386;SDS011;5748;53.102;8.456;2023-06-26T04:23:06;2.70;;;2.50;;
11386;SDS011;5748;53.102;8.456;2023-06-26T04:25:32;2.67;;;2.47;;
11386;SDS011;5748;53.102;8.456;2023-06-26T04:27:59;2.70;;;2.50;;
11386;SDS011;5748;53.102;8.456;2023-06-26T04:30:26;2.60;;;2.40;;
11386;SDS011;5748;53.102;8.456;2023-06-26T04:32:54;2.80;;;2.60;;
11386;SDS011;5748;53.102;8.456;2023-06-26T04:35:23;2.88;;;2.67;;
11386;SDS011;5748;53.102;8.456;2023-06-26T04:37:50;2.75;;;2.55;;
11386;SDS011;5748;53.102;8.456;2023-06-26T04:40:17;2.70;;;2.50;;
11386;SDS011;5748;53.102;8.456;2023-06-26T04:42:44;2.80;;;2.60;;
11386;SDS011;5748;53.102;8.456;2023-06-26T04:45:11;2.75;;;2.55;;
11386;SDS011;5748;53.102;8.456;2023-06-26T04:47:38;2.90;;;2.70;;
11386;SDS011;5748;53.102;8.456;2023-06-26T04:50:07;2.63;;;2.42;;
11386;SDS011;5748;53.102;8.456;2023-06-26T04:52:34;2.85;;;2.65;;
11386;SDS011;5748;53.102;8.456;2023-06-26T04:55:01;3.17;;;2.60;;
11386;SDS011;5748;53.102;8.456;2023-06-26T04:57:29;2.90;;;2.70;;
11386;SDS011;5748;53.102;8.456;2023-06-26T04:59:56;2.60;;;2.40;;
11386;SDS011;5748;53.102;8.456;2023-06-26T05:02:23;2.45;;;2.25;;
11386;SDS011;5748;53.102;8.456;2023-06-26T05:04:51;2.70;;;2.50;;
11386;SDS011;5748;53.102;8.456;2023-06-26T05:07:20;2.60;;;2.40;;
11386;SDS011;5748;53.102;8.456;2023-06-26T05:09:46;2.88;;;2.58;;
11386;SDS011;5748;53.102;8.456;2023-06-26T05:12:13;2.80;;;2.60;;
11386;SDS011;5748;53.102;8.456;2023-06-26T05:14:41;2.80;;;2.58;;
11386;SDS011;5748;53.102;8.456;2023-06-26T05:17:08;2.90;;;2.70;;
11386;SDS011;5748;53.102;8.456;2023-06-26T05:19:34;3.28;;;2.85;;
11386;SDS011;5748;53.102;8.456;2023-06-26T05:22:02;2.55;;;2.35;;
11386;SDS011;5748;53.102;8.456;2023-06-26T05:24:33;2.70;;;2.50;;
11386;SDS011;5748;53.102;8.456;2023-06-26T05:27:02;2.60;;;2.40;;
11386;SDS011;5748;53.102;8.456;2023-06-26T05:29:30;2.70;;;2.50;;
11386;SDS011;5748;53.102;8.456;2023-06-26T05:31:58;2.75;;;2.55;;
11386;SDS011;5748;53.102;8.456;2023-06-26T05:34:26;3.00;;;2.80;;
11386;SDS011;5748;53.102;8.456;2023-06-26T05:36:55;2.85;;;2.65;;
11386;SDS011;5748;53.102;8.456;2023-06-26T05:39:24;3.00;;;2.80;;
11386;SDS011;5748;53.102;8.456;2023-06-26T05:41:54;2.80;;;2.60;;
11386;SDS011;5748;53.102;8.456;2023-06-26T05:44:22;3.05;;;2.83;;
11386;SDS011;5748;53.102;8.456;2023-06-26T05:46:49;2.80;;;2.60;;
11386;SDS011;5748;53.102;8.456;2023-06-26T05:49:16;2.90;;;2.55;;
11386;SDS011;5748;53.102;8.456;2023-06-26T05:51:43;2.80;;;2.60;;
11386;SDS011;5748;53.102;8.456;2023-06-26T05:54:11;2.90;;;2.70;;
11386;SDS011;5748;53.102;8.456;2023-06-26T05:56:39;2.67;;;2.47;;
11386;SDS011;5748;53.102;8.456;2023-06-26T05:59:07;2.85;;;2.65;;
11386;SDS011;5748;53.102;8.456;2023-06-26T06:01:35;2.70;;;2.50;;
11386;SDS011;5748;53.102;8.456;2023-06-26T06:04:01;3.08;;;2.88;;
11386;SDS011;5748;53.102;8.456;2023-06-26T06:06:28;3.25;;;2.95;;
11386;SDS011;5748;53.102;8.456;2023-06-26T06:08:55;2.75;;;2.55;;
11386;SDS011;5748;53.102;8.456;2023-06-26T06:11:22;2.92;;;2.72;;
11386;SDS011;5748;53.102;8.456;2023-06-26T06:13:49;2.80;;;2.60;;
11386;SDS011;5748;53.102;8.456;2023-06-26T06:16:17;3.05;;;2.85;;
11386;SDS011;5748;53.102;8.456;2023-06-26T06:18:44;2.88;;;2.67;;
11386;SDS011;5748;53.102;8.456;2023-06-26T06:21:11;3.00;;;2.80;;
11386;SDS011;5748;53.102;8.456;2023-06-26T06:23:38;3.05;;;2.85;;
11386;SDS011;5748;53.102;8.456;2023-06-26T06:26:05;3.05;;;2.85;;
11386;SDS011;5748;53.102;8.456;2023-06-26T06:28:32;3.47;;;3.17;;
11386;SDS011;5748;53.102;8.456;2023-06-26T06:30:59;3.08;;;2.88;;
11386;SDS011;5748;53.102;8.456;2023-06-26T06:33:27;3.25;;;3.05;;
11386;SDS011;5748;53.102;8.456;2023-06-26T06:35:54;3.13;;;2.92;;
11386;SDS011;5748;53.102;8.456;2023-06-26T06:38:21;3.50;;;2.90;;
11386;SDS011;5748;53.102;8.456;2023-06-26T06:40:48;3.42;;;3.13;;
11386;SDS011;5748;53.102;8.456;2023-06-26T06:43:15;2.92;;;2.72;;
11386;SDS011;5748;53.102;8.456;2023-06-26T06:45:42;3.33;;;3.13;;
11386;SDS011;5748;53.102;8.456;2023-06-26T06:48:08;3.22;;;3.03;;
11386;SDS011;5748;53.102;8.456;2023-06-26T06:50:37;3.20;;;3.00;;
11386;SDS011;5748;53.102;8.456;2023-06-26T06:53:04;2.80;;;2.60;;
11386;SDS011;5748;53.102;8.456;2023-06-26T06:55:31;2.70;;;2.50;;
11386;SDS011;5748;53.102;8.456;2023-06-26T06:57:57;3.03;;;2.83;;
11386;SDS011;5748;53.102;8.456;2023-06-26T07:00:24;2.92;;;2.72;;
11386;SDS011;5748;53.102;8.456;2023-06-26T07:02:52;3.17;;;2.97;;
11386;SDS011;5748;53.102;8.456;2023-06-26T07:05:21;2.85;;;2.65;;
11386;SDS011;5748;53.102;8.456;2023-06-26T07:07:49;3.28;;;3.00;;
11386;SDS011;5748;53.102;8.456;2023-06-26T07:10:16;3.30;;;3.00;;
11386;SDS011;5748;53.102;8.456;2023-06-26T07:12:43;3.25;;;3.05;;
11386;SDS011;5748;53.102;8.456;2023-06-26T07:15:10;3.47;;;3.03;;
11386;SDS011;5748;53.102;8.456;2023-06-26T07:17:37;3.00;;;2.80;;
11386;SDS011;5748;53.102;8.456;2023-06-26T07:20:05;3.00;;;2.80;;
11386;SDS011;5748;53.102;8.456;2023-06-26T07:22:33;3.25;;;3.05;;
11386;SDS011;5748;53.102;8.456;2023-06-26T07:25:02;2.97;;;2.78;;
11386;SDS011;5748;53.102;8.456;2023-06-26T07:27:29;3.58;;;3.30;;
11386;SDS011;5748;53.102;8.456;2023-06-26T07:29:58;3.40;;;3.10;;
11386;SDS011;5748;53.102;8.456;2023-06-26T07:32:25;3.38;;;3.17;;
11386;SDS011;5748;53.102;8.456;2023-06-26T07:34:52;3.80;;;3.50;;
11386;SDS011;5748;53.102;8.456;2023-06-26T07:37:19;4.05;;;3.75;;
11386;SDS011;5748;53.102;8.456;2023-06-26T07:39:46;3.80;;;3.50;;
11386;SDS011;5748;53.102;8.456;2023-06-26T07:42:15;3.45;;;3.05;;
11386;SDS011;5748;53.102;8.456;2023-06-26T07:44:42;4.05;;;3.75;;
11386;SDS011;5748;53.102;8.456;2023-06-26T07:47:08;3.47;;;3.25;;
11386;SDS011;5748;53.102;8.456;2023-06-26T07:49:36;3.80;;;3.50;;
11386;SDS011;5748;53.102;8.456;2023-06-26T07:52:04;4.25;;;3.00;;
11386;SDS011;5748;53.102;8.456;2023-06-26T07:54:32;4.65;;;3.67;;
11386;SDS011;5748;53.102;8.456;2023-06-26T07:56:59;3.22;;;3.00;;
11386;SDS011;5748;53.102;8.456;2023-06-26T07:59:29;3.30;;;3.00;;
11386;SDS011;5748;53.102;8.456;2023-06-26T08:01:57;3.35;;;3.08;;
11386;SDS011;5748;53.102;8.456;2023-06-26T08:04:25;3.80;;;3.38;;
11386;SDS011;5748;53.102;8.456;2023-06-26T08:06:55;3.42;;;2.92;;
11386;SDS011;5748;53.102;8.456;2023-06-26T08:09:23;2.88;;;2.67;;
11386;SDS011;5748;53.102;8.456;2023-06-26T08:11:52;3.83;;;2.65;;
11386;SDS011;5748;53.102;8.456;2023-06-26T08:14:19;2.97;;;2.78;;
11386;SDS011;5748;53.102;8.456;2023-06-26T08:16:47;2.70;;;2.50;;
11386;SDS011;5748;53.102;8.456;2023-06-26T08:19:15;2.53;;;2.33;;
11386;SDS011;5748;53.102;8.456;2023-06-26T08:21:43;2.50;;;2.30;;
11386;SDS011;5748;53.102;8.456;2023-06-26T08:24:12;2.60;;;2.40;;
11386;SDS011;5748;53.102;8.456;2023-06-26T08:26:41;2.97;;;2.67;;
11386;SDS011;5748;53.102;8.456;2023-06-26T08:29:08;2.67;;;2.47;;
11386;SDS011;5748;53.102;8.456;2023-06-26T08:31:35;2.70;;;2.50;;
11386;SDS011;5748;53.102;8.456;2023-06-26T08:34:03;3.30;;;3.00;;
11386;SDS011;5748;53.102;8.456;2023-06-26T08:36:31;2.83;;;2.63;;
11386;SDS011;5748;53.102;8.456;2023-06-26T08:38:59;3.38;;;2.78;;
11386;SDS011;5748;53.102;8.456;2023-06-26T08:41:26;2.75;;;2.55;;
11386;SDS011;5748;53.102;8.456;2023-06-26T08:43:53;3.00;;;2.80;;
11386;SDS011;5748;53.102;8.456;2023-06-26T08:46:20;4.18;;;3.30;;
11386;SDS011;5748;53.102;8.456;2023-06-26T08:48:48;3.90;;;3.50;;
11386;SDS011;5748;53.102;8.456;2023-06-26T08:51:23;2.85;;;2.65;;
11386;SDS011;5748;53.102;8.456;2023-06-26T08:53:52;3.38;;;2.80;;
11386;SDS011;5748;53.102;8.456;2023-06-26T08:56:24;2.58;;;2.30;;
11386;SDS011;5748;53.102;8.456;2023-06-26T08:58:54;2.72;;;2.20;;
11386;SDS011;5748;53.102;8.456;2023-06-26T09:01:21;1.88;;;1.67;;
11386;SDS011;5748;53.102;8.456;2023-06-26T09:03:50;2.50;;;2.10;;
11386;SDS011;5748;53.102;8.456;2023-06-26T09:06:17;1.98;;;1.75;;
11386;SDS011;5748;53.102;8.456;2023-06-26T09:08:46;3.75;;;1.80;;
11386;SDS011;5748;53.102;8.456;2023-06-26T09:11:13;1.73;;;1.60;;
11386;SDS011;5748;53.102;8.456;2023-06-26T09:13:40;1.50;;;1.40;;
11386;SDS011;5748;53.102;8.456;2023-06-26T09:16:07;1.50;;;1.40;;
11386;SDS011;5748;53.102;8.456;2023-06-26T09:18:35;1.33;;;1.23;;
11386;SDS011;5748;53.102;8.456;2023-06-26T09:21:06;1.48;;;1.38;;
11386;SDS011;5748;53.102;8.456;2023-06-26T09:23:34;1.55;;;1.00;;
11386;SDS011;5748;53.102;8.456;2023-06-26T09:26:03;1.23;;;1.13;;
11386;SDS011;5748;53.102;8.456;2023-06-26T09:28:31;1.33;;;1.10;;
11386;SDS011;5748;53.102;8.456;2023-06-26T09:31:01;1.33;;;1.20;;
11386;SDS011;5748;53.102;8.456;2023-06-26T09:33:32;1.40;;;1.30;;
11386;SDS011;5748;53.102;8.456;2023-06-26T09:36:02;1.13;;;1.02;;
11386;SDS011;5748;53.102;8.456;2023-06-26T09:38:32;1.52;;;1.15;;
11386;SDS011;5748;53.102;8.456;2023-06-26T09:41:00;1.33;;;1.10;;
11386;SDS011;5748;53.102;8.456;2023-06-26T09:43:29;1.80;;;1.02;;
11386;SDS011;5748;53.102;8.456;2023-06-26T09:45:57;2.85;;;0.90;;
11386;SDS011;5748;53.102;8.456;2023-06-26T09:48:24;2.08;;;0.98;;
11386;SDS011;5748;53.102;8.456;2023-06-26T09:50:51;1.50;;;0.90;;
11386;SDS011;5748;53.102;8.456;2023-06-26T09:53:19;0.70;;;0.70;;
11386;SDS011;5748;53.102;8.456;2023-06-26T09:55:46;1.60;;;0.70;;
11386;SDS011;5748;53.102;8.456;2023-06-26T09:58:13;0.85;;;0.85;;
11386;SDS011;5748;53.102;8.456;2023-06-26T10:00:43;0.85;;;0.70;;
11386;SDS011;5748;53.102;8.456;2023-06-26T10:03:10;2.13;;;1.05;;
11386;SDS011;5748;53.102;8.456;2023-06-26T10:05:38;0.57;;;0.57;;
11386;SDS011;5748;53.102;8.456;2023-06-26T10:08:06;0.88;;;0.60;;
11386;SDS011;5748;53.102;8.456;2023-06-26T10:10:34;0.70;;;0.70;;
11386;SDS011;5748;53.102;8.456;2023-06-26T10:13:04;1.05;;;0.70;;
11386;SDS011;5748;53.102;8.456;2023-06-26T10:15:38;0.70;;;0.70;;
11386;SDS011;5748;53.102;8.456;2023-06-26T10:18:09;1.00;;;0.80;;
11386;SDS011;5748;53.102;8.456;2023-06-26T10:20:38;1.25;;;0.70;;
11386;SDS011;5748;53.102;8.456;2023-06-26T10:23:07;1.35;;;0.80;;
11386;SDS011;5748;53.102;8.456;2023-06-26T10:25:36;1.02;;;0.80;;
11386;SDS011;5748;53.102;8.456;2023-06-26T10:28:07;1.00;;;0.70;;
11386;SDS011;5748;53.102;8.456;2023-06-26T10:30:35;0.63;;;0.50;;
11386;SDS011;5748;53.102;8.456;2023-06-26T10:33:05;0.77;;;0.60;;
11386;SDS011;5748;53.102;8.456;2023-06-26T10:35:33;0.60;;;0.52;;
11386;SDS011;5748;53.102;8.456;2023-06-26T10:38:08;0.50;;;0.50;;
11386;SDS011;5748;53.102;8.456;2023-06-26T10:40:41;0.50;;;0.50;;
11386;SDS011;5748;53.102;8.456;2023-06-26T10:43:10;0.60;;;0.60;;
11386;SDS011;5748;53.102;8.456;2023-06-26T10:45:42;1.27;;;0.80;;
11386;SDS011;5748;53.102;8.456;2023-06-26T10:48:13;0.65;;;0.60;;
11386;SDS011;5748;53.102;8.456;2023-06-26T10:50:41;0.60;;;0.60;;
11386;SDS011;5748;53.102;8.456;2023-06-26T10:53:12;0.70;;;0.70;;
11386;SDS011;5748;53.102;8.456;2023-06-26T10:55:47;0.70;;;0.70;;
11386;SDS011;5748;53.102;8.456;2023-06-26T10:58:32;1.08;;;0.90;;
11386;SDS011;5748;53.102;8.456;2023-06-26T11:03:49;0.52;;;0.52;;
11386;SDS011;5748;53.102;8.456;2023-06-26T11:06:30;1.48;;;0.80;;
11386;SDS011;5748;53.102;8.456;2023-06-26T11:08:59;0.50;;;0.50;;
11386;SDS011;5748;53.102;8.456;2023-06-26T11:14:29;0.93;;;0.60;;
11386;SDS011;5748;53.102;8.456;2023-06-26T11:16:58;0.85;;;0.63;;
11386;SDS011;5748;53.102;8.456;2023-06-26T11:19:30;0.70;;;0.50;;
11386;SDS011;5748;53.102;8.456;2023-06-26T11:22:01;1.15;;;0.70;;
11386;SDS011;5748;53.102;8.456;2023-06-26T11:24:30;0.60;;;0.60;;
11386;SDS011;5748;53.102;8.456;2023-06-26T11:27:01;1.10;;;1.00;;
11386;SDS011;5748;53.102;8.456;2023-06-26T11:29:29;0.80;;;0.80;;
11386;SDS011;5748;53.102;8.456;2023-06-26T11:31:58;0.80;;;0.75;;
11386;SDS011;5748;53.102;8.456;2023-06-26T11:34:33;1.13;;;0.70;;
11386;SDS011;5748;53.102;8.456;2023-06-26T11:37:02;0.55;;;0.55;;
11386;SDS011;5748;53.102;8.456;2023-06-26T11:39:29;0.68;;;0.60;;
11386;SDS011;5748;53.102;8.456;2023-06-26T11:41:56;0.68;;;0.60;;
11386;SDS011;5748;53.102;8.456;2023-06-26T11:44:25;1.05;;;0.90;;
11386;SDS011;5748;53.102;8.456;2023-06-26T11:46:56;0.80;;;0.70;;
11386;SDS011;5748;53.102;8.456;2023-06-26T11:49:24;0.60;;;0.60;;
11386;SDS011;5748;53.102;8.456;2023-06-26T11:51:53;0.60;;;0.60;;
11386;SDS011;5748;53.102;8.456;2023-06-26T11:54:23;0.80;;;0.60;;
11386;SDS011;5748;53.102;8.456;2023-06-26T11:56:52;0.52;;;0.52;;
11386;SDS011;5748;53.102;8.456;2023-06-26T11:59:22;1.05;;;0.68;;
11386;SDS011;5748;53.102;8.456;2023-06-26T12:01:49;0.90;;;0.80;;
11386;SDS011;5748;53.102;8.456;2023-06-26T12:04:17;0.50;;;0.50;;
11386;SDS011;5748;53.102;8.456;2023-06-26T12:06:46;0.68;;;0.57;;
11386;SDS011;5748;53.102;8.456;2023-06-26T12:09:16;0.57;;;0.57;;
11386;SDS011;5748;53.102;8.456;2023-06-26T12:11:46;0.63;;;0.63;;
11386;SDS011;5748;53.102;8.456;2023-06-26T12:14:16;0.82;;;0.73;;
11386;SDS011;5748;53.102;8.456;2023-06-26T12:16:45;0.60;;;0.60;;
11386;SDS011;5748;53.102;8.456;2023-06-26T12:19:12;1.10;;;0.80;;
11386;SDS011;5748;53.102;8.456;2023-06-26T12:21:47;0.70;;;0.70;;
11386;SDS011;5748;53.102;8.456;2023-06-26T12:24:19;0.80;;;0.80;;
11386;SDS011;5748;53.102;8.456;2023-06-26T12:26:49;0.80;;;0.80;;
11386;SDS011;5748;53.102;8.456;2023-06-26T12:29:18;2.28;;;0.70;;
11386;SDS011;5748;53.102;8.456;2023-06-26T12:31:49;0.90;;;0.75;;
11386;SDS011;5748;53.102;8.456;2023-06-26T12:34:18;0.77;;;0.73;;
11386;SDS011;5748;53.102;8.456;2023-06-26T12:36:47;0.82;;;0.63;;
11386;SDS011;5748;53.102;8.456;2023-06-26T12:39:16;0.73;;;0.73;;
11386;SDS011;5748;53.102;8.456;2023-06-26T12:41:47;0.70;;;0.60;;
11386;SDS011;5748;53.102;8.456;2023-06-26T12:44:19;0.80;;;0.70;;
11386;SDS011;5748;53.102;8.456;2023-06-26T12:46:47;1.10;;;0.85;;
11386;SDS011;5748;53.102;8.456;2023-06-26T12:49:15;1.40;;;0.90;;
11386;SDS011;5748;53.102;8.456;2023-06-26T12:51:42;0.90;;;0.90;;
11386;SDS011;5748;53.102;8.456;2023-06-26T12:54:09;0.75;;;0.75;;
11386;SDS011;5748;53.102;8.456;2023-06-26T12:56:38;0.77;;;0.75;;
11386;SDS011;5748;53.102;8.456;2023-06-26T12:59:05;0.80;;;0.80;;
11386;SDS011;5748;53.102;8.456;2023-06-26T13:01:32;1.10;;;0.85;;
11386;SDS011;5748;53.102;8.456;2023-06-26T13:03:59;1.10;;;0.80;;
11386;SDS011;5748;53.102;8.456;2023-06-26T13:06:26;1.20;;;1.10;;
11386;SDS011;5748;53.102;8.456;2023-06-26T13:08:53;1.13;;;0.90;;
11386;SDS011;5748;53.102;8.456;2023-06-26T13:11:19;0.82;;;0.82;;
11386;SDS011;5748;53.102;8.456;2023-06-26T13:13:49;0.90;;;0.90;;
11386;SDS011;5748;53.102;8.456;2023-06-26T13:16:15;1.25;;;1.00;;
11386;SDS011;5748;53.102;8.456;2023-06-26T13:18:43;0.95;;;0.90;;
11386;SDS011;5748;53.102;8.456;2023-06-26T13:21:12;1.30;;;1.00;;
11386;SDS011;5748;53.102;8.456;2023-06-26T13:23:40;1.92;;;1.00;;
11386;SDS011;5748;53.102;8.456;2023-06-26T13:26:07;0.95;;;0.90;;
11386;SDS011;5748;53.102;8.456;2023-06-26T13:28:34;3.47;;;1.20;;
11386;SDS011;5748;53.102;8.456;2023-06-26T13:31:03;0.80;;;0.80;;
11386;SDS011;5748;53.102;8.456;2023-06-26T13:33:30;0.80;;;0.77;;
11386;SDS011;5748;53.102;8.456;2023-06-26T13:35:57;0.80;;;0.80;;
11386;SDS011;5748;53.102;8.456;2023-06-26T13:38:24;0.93;;;0.90;;
11386;SDS011;5748;53.102;8.456;2023-06-26T13:40:52;1.10;;;1.00;;
11386;SDS011;5748;53.102;8.456;2023-06-26T13:43:20;1.10;;;0.70;;
11386;SDS011;5748;53.102;8.456;2023-06-26T13:45:48;0.98;;;0.85;;
11386;SDS011;5748;53.102;8.456;2023-06-26T13:48:16;1.00;;;0.90;;
11386;SDS011;5748;53.102;8.456;2023-06-26T13:50:43;0.88;;;0.75;;
11386;SDS011;5748;53.102;8.456;2023-06-26T13:53:11;0.98;;;0.90;;
11386;SDS011;5748;53.102;8.456;2023-06-26T13:55:38;0.88;;;0.88;;
11386;SDS011;5748;53.102;8.456;2023-06-26T13:58:06;1.10;;;0.90;;
11386;SDS011;5748;53.102;8.456;2023-06-26T14:00:34;2.33;;;1.05;;
11386;SDS011;5748;53.102;8.456;2023-06-26T14:03:01;1.30;;;0.90;;
11386;SDS011;5748;53.102;8.456;2023-06-26T14:05:32;0.77;;;0.77;;
11386;SDS011;5748;53.102;8.456;2023-06-26T14:08:01;0.82;;;0.82;;
11386;SDS011;5748;53.102;8.456;2023-06-26T14:10:30;1.70;;;1.00;;
11386;SDS011;5748;53.102;8.456;2023-06-26T14:12:58;0.95;;;0.82;;
11386;SDS011;5748;53.102;8.456;2023-06-26T14:15:26;1.05;;;1.00;;
11386;SDS011;5748;53.102;8.456;2023-06-26T14:17:53;1.75;;;1.05;;
11386;SDS011;5748;53.102;8.456;2023-06-26T14:20:21;1.05;;;0.95;;
11386;SDS011;5748;53.102;8.456;2023-06-26T14:22:49;1.58;;;1.00;;
11386;SDS011;5748;53.102;8.456;2023-06-26T14:25:16;1.65;;;0.93;;
11386;SDS011;5748;53.102;8.456;2023-06-26T14:27:43;1.27;;;1.00;;
11386;SDS011;5748;53.102;8.456;2023-06-26T14:30:11;0.68;;;0.68;;
11386;SDS011;5748;53.102;8.456;2023-06-26T14:32:38;1.10;;;1.00;;
11386;SDS011;5748;53.102;8.456;2023-06-26T14:35:05;1.67;;;0.90;;
11386;SDS011;5748;53.102;8.456;2023-06-26T14:37:33;0.88;;;0.88;;
11386;SDS011;5748;53.102;8.456;2023-06-26T14:40:07;1.65;;;1.00;;
11386;SDS011;5748;53.102;8.456;2023-06-26T14:42:35;0.80;;;0.80;;
11386;SDS011;5748;53.102;8.456;2023-06-26T14:45:02;1.58;;;0.77;;
11386;SDS011;5748;53.102;8.456;2023-06-26T14:47:30;0.80;;;0.80;;
11386;SDS011;5748;53.102;8.456;2023-06-26T14:49:57;0.75;;;0.75;;
11386;SDS011;5748;53.102;8.456;2023-06-26T14:52:24;0.70;;;0.70;;
11386;SDS011;5748;53.102;8.456;2023-06-26T14:54:51;0.88;;;0.88;;
11386;SDS011;5748;53.102;8.456;2023-06-26T14:57:19;0.70;;;0.70;;
11386;SDS011;5748;53.102;8.456;2023-06-26T14:59:46;1.25;;;0.80;;
11386;SDS011;5748;53.102;8.456;2023-06-26T15:02:13;0.80;;;0.80;;
11386;SDS011;5748;53.102;8.456;2023-06-26T15:04:40;0.73;;;0.60;;
11386;SDS011;5748;53.102;8.456;2023-06-26T15:07:07;1.30;;;1.00;;
11386;SDS011;5748;53.102;8.456;2023-06-26T15:09:33;0.93;;;0.80;;
11386;SDS011;5748;53.102;8.456;2023-06-26T15:12:00;1.23;;;0.70;;
11386;SDS011;5748;53.102;8.456;2023-06-26T15:14:29;2.33;;;0.80;;